sensor_id;sensor_type;location;lat;lon;timestamp;pressure;altitude;pressure_sealevel;temperature;humidity
53647;BME280;39550;52.230;5.194;2022-07-05T00:00:08;102046.63;;;18.86;57.11
53647;BME280;39550;52.230;5.194;2022-07-05T00:02:34;102047.47;;;18.85;57.45
53647;BME280;39550;52.230;5.194;2022-07-05T00:04:59;102042.28;;;18.84;56.89
53647;BME280;39550;52.230;5.194;2022-07-05T00:07:25;102045.75;;;18.83;57.48
53647;BME280;39550;52.230;5.194;2022-07-05T00:12:16;102037.09;;;18.81;57.62
53647;BME280;39550;52.230;5.194;2022-07-05T00:14:43;102042.31;;;18.81;57.18
53647;BME280;39550;52.230;5.194;2022-07-05T00:17:10;102037.09;;;18.81;57.22
53647;BME280;39550;52.230;5.194;2022-07-05T00:19:35;102039.72;;;18.78;57.59
53647;BME280;39550;52.230;5.194;2022-07-05T00:22:00;102044.94;;;18.78;57.51
53647;BME280;39550;52.230;5.194;2022-07-05T00:24:26;102037.97;;;18.77;57.43
53647;BME280;39550;52.230;5.194;2022-07-05T00:26:52;102034.50;;;18.76;57.31
53647;BME280;39550;52.230;5.194;2022-07-05T00:29:17;102041.47;;;18.76;57.10
53647;BME280;39550;52.230;5.194;2022-07-05T00:31:42;102039.72;;;18.75;57.70
53647;BME280;39550;52.230;5.194;2022-07-05T00:34:07;102040.63;;;18.74;57.34
53647;BME280;39550;52.230;5.194;2022-07-05T00:36:33;102036.28;;;18.72;57.59
53647;BME280;39550;52.230;5.194;2022-07-05T00:38:58;102037.13;;;18.71;57.67
53647;BME280;39550;52.230;5.194;2022-07-05T00:41:24;102031.06;;;18.71;57.63
53647;BME280;39550;52.230;5.194;2022-07-05T00:44:01;102032.78;;;18.70;57.82
53647;BME280;39550;52.230;5.194;2022-07-05T00:46:27;102031.94;;;18.68;57.55
53647;BME280;39550;52.230;5.194;2022-07-05T00:48:54;102030.19;;;18.67;57.57
53647;BME280;39550;52.230;5.194;2022-07-05T00:51:20;102020.63;;;18.65;57.79
53647;BME280;39550;52.230;5.194;2022-07-05T00:53:46;102026.75;;;18.65;57.64
53647;BME280;39550;52.230;5.194;2022-07-05T00:56:12;102030.22;;;18.64;57.60
53647;BME280;39550;52.230;5.194;2022-07-05T00:58:38;102037.19;;;18.65;57.60
53647;BME280;39550;52.230;5.194;2022-07-05T01:01:05;102035.44;;;18.64;57.52
53647;BME280;39550;52.230;5.194;2022-07-05T01:03:31;102036.34;;;18.60;57.87
53647;BME280;39550;52.230;5.194;2022-07-05T01:05:58;102033.72;;;18.63;57.60
53647;BME280;39550;52.230;5.194;2022-07-05T01:08:24;102032.88;;;18.61;57.88
53647;BME280;39550;52.230;5.194;2022-07-05T01:10:50;102032.88;;;18.61;57.95
53647;BME280;39550;52.230;5.194;2022-07-05T01:13:17;102035.50;;;18.60;57.58
53647;BME280;39550;52.230;5.194;2022-07-05T01:15:42;102037.22;;;18.59;57.69
53647;BME280;39550;52.230;5.194;2022-07-05T01:18:08;102031.16;;;18.59;58.04
53647;BME280;39550;52.230;5.194;2022-07-05T01:20:35;102034.63;;;18.58;58.10
53647;BME280;39550;52.230;5.194;2022-07-05T01:23:01;102036.38;;;18.55;57.97
53647;BME280;39550;52.230;5.194;2022-07-05T01:25:28;102037.25;;;18.56;57.93
53647;BME280;39550;52.230;5.194;2022-07-05T01:27:54;102037.25;;;18.54;57.90
53647;BME280;39550;52.230;5.194;2022-07-05T01:30:20;102029.44;;;18.53;58.25
53647;BME280;39550;52.230;5.194;2022-07-05T01:32:46;102029.44;;;18.53;58.05
53647;BME280;39550;52.230;5.194;2022-07-05T01:35:13;102018.13;;;18.51;58.50
53647;BME280;39550;52.230;5.194;2022-07-05T01:37:39;102026.84;;;18.50;58.11
53647;BME280;39550;52.230;5.194;2022-07-05T01:40:05;102028.56;;;18.49;58.47
53647;BME280;39550;52.230;5.194;2022-07-05T01:42:31;102027.75;;;18.47;58.24
53647;BME280;39550;52.230;5.194;2022-07-05T01:44:57;102036.44;;;18.45;58.41
53647;BME280;39550;52.230;5.194;2022-07-05T01:47:23;102030.38;;;18.46;58.46
53647;BME280;39550;52.230;5.194;2022-07-05T01:49:51;102032.97;;;18.46;58.23
53647;BME280;39550;52.230;5.194;2022-07-05T01:52:21;102033.00;;;18.44;58.26
53647;BME280;39550;52.230;5.194;2022-07-05T01:54:47;102037.31;;;18.44;58.18
53647;BME280;39550;52.230;5.194;2022-07-05T01:57:13;102035.56;;;18.43;58.61
53647;BME280;39550;52.230;5.194;2022-07-05T01:59:38;102035.56;;;18.43;58.71
53647;BME280;39550;52.230;5.194;2022-07-05T02:02:05;102037.31;;;18.42;58.50
53647;BME280;39550;52.230;5.194;2022-07-05T02:04:35;102031.28;;;18.40;58.31
53647;BME280;39550;52.230;5.194;2022-07-05T02:07:08;102033.84;;;18.38;58.83
53647;BME280;39550;52.230;5.194;2022-07-05T02:09:34;102033.00;;;18.38;58.26
53647;BME280;39550;52.230;5.194;2022-07-05T02:11:59;102025.19;;;18.36;58.78
53647;BME280;39550;52.230;5.194;2022-07-05T02:14:25;102027.81;;;18.35;58.80
53647;BME280;39550;52.230;5.194;2022-07-05T02:16:50;102032.13;;;18.34;58.82
53647;BME280;39550;52.230;5.194;2022-07-05T02:19:16;102021.72;;;18.31;58.67
53647;BME280;39550;52.230;5.194;2022-07-05T02:21:41;102028.69;;;18.32;58.72
53647;BME280;39550;52.230;5.194;2022-07-05T02:24:07;102020.00;;;18.27;58.63
53647;BME280;39550;52.230;5.194;2022-07-05T02:26:33;102025.19;;;18.30;59.08
53647;BME280;39550;52.230;5.194;2022-07-05T02:28:59;102026.97;;;18.28;59.16
53647;BME280;39550;52.230;5.194;2022-07-05T02:31:25;102021.75;;;18.28;59.04
53647;BME280;39550;52.230;5.194;2022-07-05T02:33:50;102020.00;;;18.27;58.91
53647;BME280;39550;52.230;5.194;2022-07-05T02:36:17;102020.88;;;18.26;59.33
53647;BME280;39550;52.230;5.194;2022-07-05T02:38:42;102021.78;;;18.25;59.15
53647;BME280;39550;52.230;5.194;2022-07-05T02:41:09;102016.56;;;18.25;59.02
53647;BME280;39550;52.230;5.194;2022-07-05T02:43:36;102025.25;;;18.24;58.59
53647;BME280;39550;52.230;5.194;2022-07-05T02:46:02;102027.88;;;18.23;58.85
53647;BME280;39550;52.230;5.194;2022-07-05T02:48:28;102028.72;;;18.23;58.85
53647;BME280;39550;52.230;5.194;2022-07-05T02:50:54;102030.50;;;18.21;58.71
53647;BME280;39550;52.230;5.194;2022-07-05T02:53:19;102038.34;;;18.19;59.28
53647;BME280;39550;52.230;5.194;2022-07-05T02:55:45;102037.44;;;18.19;58.74
53647;BME280;39550;52.230;5.194;2022-07-05T02:58:10;102040.06;;;18.16;58.90
53647;BME280;39550;52.230;5.194;2022-07-05T03:00:35;102034.84;;;18.17;59.14
53647;BME280;39550;52.230;5.194;2022-07-05T03:03:01;102042.69;;;18.16;59.52
53647;BME280;39550;52.230;5.194;2022-07-05T03:05:27;102037.47;;;18.16;59.40
53647;BME280;39550;52.230;5.194;2022-07-05T03:07:52;102043.56;;;18.15;59.33
53647;BME280;39550;52.230;5.194;2022-07-05T03:10:17;102041.84;;;18.14;59.66
53647;BME280;39550;52.230;5.194;2022-07-05T03:12:43;102042.69;;;18.13;59.05
53647;BME280;39550;52.230;5.194;2022-07-05T03:15:08;102050.53;;;18.13;59.08
53647;BME280;39550;52.230;5.194;2022-07-05T03:17:34;102047.03;;;18.11;59.44
53647;BME280;39550;52.230;5.194;2022-07-05T03:19:59;102051.41;;;18.09;59.55
53647;BME280;39550;52.230;5.194;2022-07-05T03:22:24;102054.03;;;18.09;59.56
53647;BME280;39550;52.230;5.194;2022-07-05T03:24:50;102051.41;;;18.09;59.89
53647;BME280;39550;52.230;5.194;2022-07-05T03:27:15;102059.25;;;18.07;59.63
53647;BME280;39550;52.230;5.194;2022-07-05T03:29:40;102047.06;;;18.06;59.26
53647;BME280;39550;52.230;5.194;2022-07-05T03:32:06;102052.31;;;18.04;59.33
53647;BME280;39550;52.230;5.194;2022-07-05T03:34:31;102047.94;;;18.03;59.78
53647;BME280;39550;52.230;5.194;2022-07-05T03:36:56;102054.03;;;18.02;59.15
53647;BME280;39550;52.230;5.194;2022-07-05T03:39:22;102056.63;;;18.02;59.74
53647;BME280;39550;52.230;5.194;2022-07-05T03:41:47;102054.94;;;18.01;59.16
53647;BME280;39550;52.230;5.194;2022-07-05T03:44:12;102058.41;;;18.00;59.65
53647;BME280;39550;52.230;5.194;2022-07-05T03:46:38;102055.81;;;17.99;59.56
53647;BME280;39550;52.230;5.194;2022-07-05T03:49:03;102067.09;;;17.99;59.46
53647;BME280;39550;52.230;5.194;2022-07-05T03:51:28;102058.41;;;17.97;58.97
53647;BME280;39550;52.230;5.194;2022-07-05T03:53:53;102061.03;;;17.97;59.75
53647;BME280;39550;52.230;5.194;2022-07-05T03:56:19;102061.88;;;17.96;59.85
53647;BME280;39550;52.230;5.194;2022-07-05T03:58:48;102056.69;;;17.93;59.44
53647;BME280;39550;52.230;5.194;2022-07-05T04:01:14;102061.03;;;17.96;59.98
53647;BME280;39550;52.230;5.194;2022-07-05T04:03:40;102065.38;;;17.95;59.91
53647;BME280;39550;52.230;5.194;2022-07-05T04:06:06;102058.41;;;17.94;59.32
53647;BME280;39550;52.230;5.194;2022-07-05T04:08:31;102066.22;;;17.94;59.42
53647;BME280;39550;52.230;5.194;2022-07-05T04:10:57;102060.16;;;17.94;59.74
53647;BME280;39550;52.230;5.194;2022-07-05T04:13:22;102067.97;;;17.94;59.24
53647;BME280;39550;52.230;5.194;2022-07-05T04:15:47;102056.69;;;17.93;59.73
53647;BME280;39550;52.230;5.194;2022-07-05T04:18:13;102060.16;;;17.92;59.85
53647;BME280;39550;52.230;5.194;2022-07-05T04:20:38;102066.25;;;17.91;59.10
53647;BME280;39550;52.230;5.194;2022-07-05T04:23:03;102068.84;;;17.91;59.76
53647;BME280;39550;52.230;5.194;2022-07-05T04:25:29;102067.06;;;17.90;59.63
53647;BME280;39550;52.230;5.194;2022-07-05T04:27:55;102061.88;;;17.87;59.48
53647;BME280;39550;52.230;5.194;2022-07-05T04:30:23;102070.59;;;17.89;59.51
53647;BME280;39550;52.230;5.194;2022-07-05T04:32:49;102072.28;;;17.90;59.52
53647;BME280;39550;52.230;5.194;2022-07-05T04:35:15;102073.19;;;17.89;59.56
53647;BME280;39550;52.230;5.194;2022-07-05T04:37:41;102065.34;;;17.86;59.77
53647;BME280;39550;52.230;5.194;2022-07-05T04:40:08;102068.84;;;17.86;59.59
53647;BME280;39550;52.230;5.194;2022-07-05T04:42:33;102061.03;;;17.86;59.53
53647;BME280;39550;52.230;5.194;2022-07-05T04:44:59;102065.34;;;17.86;59.99
53647;BME280;39550;52.230;5.194;2022-07-05T04:47:24;102072.31;;;17.87;60.30
53647;BME280;39550;52.230;5.194;2022-07-05T04:49:54;102077.53;;;17.85;60.02
53647;BME280;39550;52.230;5.194;2022-07-05T04:52:19;102065.34;;;17.86;60.12
53647;BME280;39550;52.230;5.194;2022-07-05T04:54:45;102070.56;;;17.86;59.74
53647;BME280;39550;52.230;5.194;2022-07-05T04:57:10;102063.63;;;17.85;60.04
53647;BME280;39550;52.230;5.194;2022-07-05T04:59:36;102069.72;;;17.84;59.51
53647;BME280;39550;52.230;5.194;2022-07-05T05:02:01;102066.25;;;17.83;60.53
53647;BME280;39550;52.230;5.194;2022-07-05T05:04:27;102073.19;;;17.83;60.63
53647;BME280;39550;52.230;5.194;2022-07-05T05:06:52;102064.53;;;17.78;60.36
53647;BME280;39550;52.230;5.194;2022-07-05T05:09:17;102071.44;;;17.86;59.80
53647;BME280;39550;52.230;5.194;2022-07-05T05:11:43;102081.00;;;17.86;60.26
53647;BME280;39550;52.230;5.194;2022-07-05T05:14:08;102083.63;;;17.83;60.12
53647;BME280;39550;52.230;5.194;2022-07-05T05:16:33;102079.28;;;17.82;60.67
53647;BME280;39550;52.230;5.194;2022-07-05T05:18:59;102078.41;;;17.81;60.61
53647;BME280;39550;52.230;5.194;2022-07-05T05:21:24;102080.16;;;17.82;60.28
53647;BME280;39550;52.230;5.194;2022-07-05T05:23:49;102079.28;;;17.83;60.77
53647;BME280;39550;52.230;5.194;2022-07-05T05:26:14;102082.75;;;17.84;60.45
53647;BME280;39550;52.230;5.194;2022-07-05T05:28:40;102084.47;;;17.82;60.69
53647;BME280;39550;52.230;5.194;2022-07-05T05:31:06;102086.22;;;17.81;61.02
53647;BME280;39550;52.230;5.194;2022-07-05T05:33:32;102086.22;;;17.83;61.05
53647;BME280;39550;52.230;5.194;2022-07-05T05:35:57;102087.97;;;17.84;60.84
53647;BME280;39550;52.230;5.194;2022-07-05T05:38:23;102082.75;;;17.84;60.82
53647;BME280;39550;52.230;5.194;2022-07-05T05:40:48;102089.72;;;17.85;60.76
53647;BME280;39550;52.230;5.194;2022-07-05T05:43:13;102087.09;;;17.85;60.56
53647;BME280;39550;52.230;5.194;2022-07-05T05:45:38;102090.56;;;17.84;60.85
53647;BME280;39550;52.230;5.194;2022-07-05T05:48:05;102087.13;;;17.83;60.31
53647;BME280;39550;52.230;5.194;2022-07-05T05:50:32;102094.03;;;17.84;60.83
53647;BME280;39550;52.230;5.194;2022-07-05T05:52:58;102098.41;;;17.84;60.75
53647;BME280;39550;52.230;5.194;2022-07-05T05:55:25;102089.72;;;17.85;60.62
53647;BME280;39550;52.230;5.194;2022-07-05T05:57:51;102097.53;;;17.83;60.76
53647;BME280;39550;52.230;5.194;2022-07-05T06:00:17;102095.78;;;17.84;60.51
53647;BME280;39550;52.230;5.194;2022-07-05T06:02:44;102101.00;;;17.84;60.57
53647;BME280;39550;52.230;5.194;2022-07-05T06:05:09;102095.78;;;17.84;60.83
53647;BME280;39550;52.230;5.194;2022-07-05T06:07:49;102098.41;;;17.84;61.15
53647;BME280;39550;52.230;5.194;2022-07-05T06:10:20;102098.41;;;17.84;60.78
53647;BME280;39550;52.230;5.194;2022-07-05T06:12:46;102107.09;;;17.83;60.89
53647;BME280;39550;52.230;5.194;2022-07-05T06:15:11;102103.63;;;17.84;60.91
53647;BME280;39550;52.230;5.194;2022-07-05T06:17:37;102107.97;;;17.85;61.06
53647;BME280;39550;52.230;5.194;2022-07-05T06:20:17;102111.41;;;17.87;60.94
53647;BME280;39550;52.230;5.194;2022-07-05T06:22:44;102118.38;;;17.88;61.18
53647;BME280;39550;52.230;5.194;2022-07-05T06:25:09;102119.25;;;17.87;61.05
53647;BME280;39550;52.230;5.194;2022-07-05T06:27:42;102117.50;;;17.86;60.61
53647;BME280;39550;52.230;5.194;2022-07-05T06:30:08;102117.53;;;17.80;60.45
53647;BME280;39550;52.230;5.194;2022-07-05T06:32:34;102122.72;;;17.86;61.15
53647;BME280;39550;52.230;5.194;2022-07-05T06:34:59;102118.38;;;17.86;60.49
53647;BME280;39550;52.230;5.194;2022-07-05T06:37:25;102121.84;;;17.85;60.77
53647;BME280;39550;52.230;5.194;2022-07-05T06:39:50;102124.47;;;17.87;60.92
53647;BME280;39550;52.230;5.194;2022-07-05T06:42:15;102124.47;;;17.87;60.53
53647;BME280;39550;52.230;5.194;2022-07-05T06:44:41;102123.59;;;17.88;60.93
53647;BME280;39550;52.230;5.194;2022-07-05T06:47:07;102124.47;;;17.87;60.93
53647;BME280;39550;52.230;5.194;2022-07-05T06:49:32;102133.16;;;17.86;60.64
53647;BME280;39550;52.230;5.194;2022-07-05T06:51:58;102136.66;;;17.85;60.62
53647;BME280;39550;52.230;5.194;2022-07-05T06:54:23;102132.28;;;17.84;61.15
53647;BME280;39550;52.230;5.194;2022-07-05T06:56:48;102143.56;;;17.86;61.13
53647;BME280;39550;52.230;5.194;2022-07-05T06:59:14;102136.66;;;17.85;61.12
53647;BME280;39550;52.230;5.194;2022-07-05T07:01:39;102151.44;;;17.87;61.45
53647;BME280;39550;52.230;5.194;2022-07-05T07:04:04;102139.25;;;17.85;60.94
53647;BME280;39550;52.230;5.194;2022-07-05T07:06:29;102138.38;;;17.84;61.55
53647;BME280;39550;52.230;5.194;2022-07-05T07:08:55;102144.47;;;17.83;61.06
53647;BME280;39550;52.230;5.194;2022-07-05T07:11:38;102143.59;;;17.84;61.41
53647;BME280;39550;52.230;5.194;2022-07-05T07:14:04;102140.09;;;17.87;61.52
53647;BME280;39550;52.230;5.194;2022-07-05T07:16:29;102147.06;;;17.88;61.01
53647;BME280;39550;52.230;5.194;2022-07-05T07:18:54;102141.00;;;17.87;60.85
53647;BME280;39550;52.230;5.194;2022-07-05T07:21:20;102138.38;;;17.89;61.69
53647;BME280;39550;52.230;5.194;2022-07-05T07:23:45;102141.00;;;17.89;61.50
53647;BME280;39550;52.230;5.194;2022-07-05T07:26:11;102149.69;;;17.91;60.91
53647;BME280;39550;52.230;5.194;2022-07-05T07:28:38;102147.06;;;17.88;61.54
53647;BME280;39550;52.230;5.194;2022-07-05T07:31:04;102150.53;;;17.87;61.14
53647;BME280;39550;52.230;5.194;2022-07-05T07:33:29;102154.88;;;17.88;61.19
53647;BME280;39550;52.230;5.194;2022-07-05T07:35:54;102150.59;;;17.92;61.08
53647;BME280;39550;52.230;5.194;2022-07-05T07:38:20;102153.19;;;17.93;61.13
53647;BME280;39550;52.230;5.194;2022-07-05T07:40:45;102156.66;;;17.95;60.91
53647;BME280;39550;52.230;5.194;2022-07-05T07:43:10;102154.91;;;17.97;60.68
53647;BME280;39550;52.230;5.194;2022-07-05T07:45:36;102154.91;;;17.99;61.42
53647;BME280;39550;52.230;5.194;2022-07-05T07:48:01;102161.88;;;18.01;60.51
53647;BME280;39550;52.230;5.194;2022-07-05T07:50:26;102159.25;;;18.01;60.46
53647;BME280;39550;52.230;5.194;2022-07-05T07:52:52;102150.53;;;18.02;61.02
53647;BME280;39550;52.230;5.194;2022-07-05T07:55:17;102154.03;;;18.01;60.63
53647;BME280;39550;52.230;5.194;2022-07-05T07:57:42;102156.66;;;18.03;60.49
53647;BME280;39550;52.230;5.194;2022-07-05T08:00:08;102150.53;;;18.02;60.63
53647;BME280;39550;52.230;5.194;2022-07-05T08:02:33;102157.50;;;18.02;60.46
53647;BME280;39550;52.230;5.194;2022-07-05T08:04:59;102159.25;;;18.01;60.44
53647;BME280;39550;52.230;5.194;2022-07-05T08:07:25;102166.19;;;18.02;60.50
53647;BME280;39550;52.230;5.194;2022-07-05T08:09:51;102164.47;;;18.04;60.06
53647;BME280;39550;52.230;5.194;2022-07-05T08:12:18;102168.81;;;18.09;60.20
53647;BME280;39550;52.230;5.194;2022-07-05T08:14:44;102165.31;;;18.08;60.60
53647;BME280;39550;52.230;5.194;2022-07-05T08:17:09;102164.44;;;18.11;59.93
53647;BME280;39550;52.230;5.194;2022-07-05T08:19:35;102167.91;;;18.13;60.24
53647;BME280;39550;52.230;5.194;2022-07-05T08:22:19;102167.91;;;18.14;60.21
53647;BME280;39550;52.230;5.194;2022-07-05T08:24:45;102169.66;;;18.17;59.63
53647;BME280;39550;52.230;5.194;2022-07-05T08:27:11;102169.63;;;18.20;59.41
53647;BME280;39550;52.230;5.194;2022-07-05T08:29:36;102169.66;;;18.15;59.37
53647;BME280;39550;52.230;5.194;2022-07-05T08:32:02;102167.91;;;18.22;58.37
53647;BME280;39550;52.230;5.194;2022-07-05T08:34:27;102158.31;;;18.23;58.58
53647;BME280;39550;52.230;5.194;2022-07-05T08:36:52;102162.66;;;18.28;58.47
53647;BME280;39550;52.230;5.194;2022-07-05T08:39:18;102163.50;;;18.29;58.87
53647;BME280;39550;52.230;5.194;2022-07-05T08:41:48;102166.13;;;18.30;58.56
53647;BME280;39550;52.230;5.194;2022-07-05T08:44:18;102168.75;;;18.32;58.88
53647;BME280;39550;52.230;5.194;2022-07-05T08:46:44;102168.72;;;18.35;58.63
53647;BME280;39550;52.230;5.194;2022-07-05T08:49:10;102160.91;;;18.33;58.42
53647;BME280;39550;52.230;5.194;2022-07-05T08:51:39;102154.81;;;18.36;58.42
53647;BME280;39550;52.230;5.194;2022-07-05T08:54:04;102166.97;;;18.35;58.61
53647;BME280;39550;52.230;5.194;2022-07-05T08:56:30;102159.16;;;18.35;58.44
53647;BME280;39550;52.230;5.194;2022-07-05T08:58:56;102159.13;;;18.38;58.58
53647;BME280;39550;52.230;5.194;2022-07-05T09:01:22;102163.47;;;18.41;58.43
53647;BME280;39550;52.230;5.194;2022-07-05T09:03:49;102159.13;;;18.42;58.43
53647;BME280;39550;52.230;5.194;2022-07-05T09:06:22;102160.88;;;18.46;58.91
53647;BME280;39550;52.230;5.194;2022-07-05T09:08:48;102171.31;;;18.46;58.30
53647;BME280;39550;52.230;5.194;2022-07-05T09:11:16;102173.00;;;18.53;58.37
53647;BME280;39550;52.230;5.194;2022-07-05T09:13:43;102160.81;;;18.55;57.96
53647;BME280;39550;52.230;5.194;2022-07-05T09:16:12;102163.41;;;18.55;58.55
53647;BME280;39550;52.230;5.194;2022-07-05T09:21:30;102171.25;;;18.57;58.03
53647;BME280;39550;52.230;5.194;2022-07-05T09:27:11;102167.78;;;18.53;58.01
53647;BME280;39550;52.230;5.194;2022-07-05T09:29:36;102146.09;;;18.43;58.13
53647;BME280;39550;52.230;5.194;2022-07-05T09:32:02;102159.13;;;18.45;58.37
53647;BME280;39550;52.230;5.194;2022-07-05T09:34:28;102163.47;;;18.44;58.46
53647;BME280;39550;52.230;5.194;2022-07-05T09:36:58;102157.41;;;18.39;58.45
53647;BME280;39550;52.230;5.194;2022-07-05T09:47:16;102161.69;;;18.57;58.45
53647;BME280;39550;52.230;5.194;2022-07-05T09:49:47;102169.47;;;18.63;58.15
53647;BME280;39550;52.230;5.194;2022-07-05T09:52:35;102179.88;;;18.72;58.23
53647;BME280;39550;52.230;5.194;2022-07-05T09:57:27;102164.31;;;18.51;58.70
53647;BME280;39550;52.230;5.194;2022-07-05T10:00:04;102162.53;;;18.58;58.22
53647;BME280;39550;52.230;5.194;2022-07-05T10:02:50;102166.03;;;18.58;58.22
53647;BME280;39550;52.230;5.194;2022-07-05T10:05:21;102174.69;;;18.63;58.12
53647;BME280;39550;52.230;5.194;2022-07-05T10:07:51;102157.31;;;18.62;58.03
53647;BME280;39550;52.230;5.194;2022-07-05T10:10:29;102169.47;;;18.69;57.66
53647;BME280;39550;52.230;5.194;2022-07-05T10:13:02;102192.03;;;18.80;57.92
53647;BME280;39550;52.230;5.194;2022-07-05T10:15:31;102160.78;;;18.64;58.21
53647;BME280;39550;52.230;5.194;2022-07-05T10:18:03;102199.03;;;18.78;57.97
53647;BME280;39550;52.230;5.194;2022-07-05T10:23:05;102166.78;;;18.79;57.54
53647;BME280;39550;52.230;5.194;2022-07-05T10:25:31;102170.28;;;18.75;57.71
53647;BME280;39550;52.230;5.194;2022-07-05T10:27:57;102157.28;;;18.65;57.65
53647;BME280;39550;52.230;5.194;2022-07-05T10:30:24;102172.06;;;18.72;58.08
53647;BME280;39550;52.230;5.194;2022-07-05T10:32:49;102171.13;;;18.80;57.44
53647;BME280;39550;52.230;5.194;2022-07-05T10:35:16;102159.81;;;18.81;57.37
53647;BME280;39550;52.230;5.194;2022-07-05T10:37:42;102166.78;;;18.79;57.38
53647;BME280;39550;52.230;5.194;2022-07-05T10:40:08;102162.47;;;18.78;57.58
53647;BME280;39550;52.230;5.194;2022-07-05T10:42:43;102165.03;;;18.84;57.39
53647;BME280;39550;52.230;5.194;2022-07-05T10:45:29;102197.16;;;19.04;57.09
53647;BME280;39550;52.230;5.194;2022-07-05T10:48:14;102195.47;;;18.99;57.56
53647;BME280;39550;52.230;5.194;2022-07-05T10:53:17;102181.59;;;18.80;57.38
53647;BME280;39550;52.230;5.194;2022-07-05T11:04:06;102179.84;;;18.79;57.01
53647;BME280;39550;52.230;5.194;2022-07-05T11:11:27;102183.31;;;18.93;56.92
53647;BME280;39550;52.230;5.194;2022-07-05T11:13:53;102184.19;;;18.91;57.00
53647;BME280;39550;52.230;5.194;2022-07-05T11:16:27;102198.97;;;18.93;57.32
53647;BME280;39550;52.230;5.194;2022-07-05T11:19:05;102193.72;;;18.95;57.03
53647;BME280;39550;52.230;5.194;2022-07-05T11:21:31;102191.97;;;18.95;56.93
53647;BME280;39550;52.230;5.194;2022-07-05T11:26:45;102183.28;;;18.95;57.01
53647;BME280;39550;52.230;5.194;2022-07-05T11:32:05;102198.91;;;18.99;57.06
53647;BME280;39550;52.230;5.194;2022-07-05T11:34:34;102183.28;;;18.96;56.96
53647;BME280;39550;52.230;5.194;2022-07-05T11:39:42;102197.19;;;19.01;56.82
53647;BME280;39550;52.230;5.194;2022-07-05T11:42:11;102187.63;;;18.99;56.74
53647;BME280;39550;52.230;5.194;2022-07-05T11:44:44;102198.88;;;19.09;56.83
53647;BME280;39550;52.230;5.194;2022-07-05T11:47:11;102207.56;;;19.15;56.64
53647;BME280;39550;52.230;5.194;2022-07-05T11:49:38;102204.06;;;19.18;56.77
53647;BME280;39550;52.230;5.194;2022-07-05T11:52:04;102199.72;;;19.14;56.80
53647;BME280;39550;52.230;5.194;2022-07-05T11:54:31;102218.88;;;19.13;56.64
53647;BME280;39550;52.230;5.194;2022-07-05T11:56:57;102209.28;;;19.15;56.54
53647;BME280;39550;52.230;5.194;2022-07-05T11:59:24;102195.34;;;19.16;56.37
53647;BME280;39550;52.230;5.194;2022-07-05T12:01:50;102189.22;;;19.18;55.99
53647;BME280;39550;52.230;5.194;2022-07-05T12:04:27;102191.81;;;19.23;56.30
53647;BME280;39550;52.230;5.194;2022-07-05T12:06:53;102203.97;;;19.30;56.27
53647;BME280;39550;52.230;5.194;2022-07-05T12:09:28;102188.38;;;19.15;56.19
53647;BME280;39550;52.230;5.194;2022-07-05T12:12:17;102196.13;;;19.27;56.10
53647;BME280;39550;52.230;5.194;2022-07-05T12:15:02;102193.50;;;19.33;55.69
53647;BME280;39550;52.230;5.194;2022-07-05T12:17:28;102193.47;;;19.36;55.55
53647;BME280;39550;52.230;5.194;2022-07-05T12:19:54;102176.00;;;19.42;55.44
53647;BME280;39550;52.230;5.194;2022-07-05T12:24:59;102189.84;;;19.53;55.05
53647;BME280;39550;52.230;5.194;2022-07-05T12:27:26;102188.88;;;19.63;55.18
53647;BME280;39550;52.230;5.194;2022-07-05T12:29:52;102191.63;;;19.49;55.24
53647;BME280;39550;52.230;5.194;2022-07-05T12:32:17;102193.41;;;19.46;55.08
53647;BME280;39550;52.230;5.194;2022-07-05T12:34:43;102203.00;;;19.44;55.49
53647;BME280;39550;52.230;5.194;2022-07-05T12:37:08;102196.75;;;19.62;55.00
53647;BME280;39550;52.230;5.194;2022-07-05T12:39:34;102205.53;;;19.54;55.25
53647;BME280;39550;52.230;5.194;2022-07-05T12:41:59;102211.66;;;19.55;54.96
53647;BME280;39550;52.230;5.194;2022-07-05T12:44:25;102226.25;;;19.84;54.22
53647;BME280;39550;52.230;5.194;2022-07-05T12:46:50;102213.03;;;19.98;52.87
53647;BME280;39550;52.230;5.194;2022-07-05T12:49:17;102206.91;;;20.00;49.98
53647;BME280;39550;52.230;5.194;2022-07-05T12:51:44;102210.28;;;20.15;50.16
53647;BME280;39550;52.230;5.194;2022-07-05T12:54:21;102207.53;;;20.24;51.52
53647;BME280;39550;52.230;5.194;2022-07-05T12:57:08;102215.28;;;20.33;50.18
53647;BME280;39550;52.230;5.194;2022-07-05T13:00:05;102202.28;;;20.29;48.08
53647;BME280;39550;52.230;5.194;2022-07-05T13:02:39;102218.94;;;20.17;47.74
53647;BME280;39550;52.230;5.194;2022-07-05T13:05:06;102186.69;;;20.16;49.21
53647;BME280;39550;52.230;5.194;2022-07-05T13:07:32;102197.31;;;20.01;50.76
53647;BME280;39550;52.230;5.194;2022-07-05T13:10:13;102212.25;;;19.91;49.98
53647;BME280;39550;52.230;5.194;2022-07-05T13:12:39;102207.09;;;19.82;50.02
53647;BME280;39550;52.230;5.194;2022-07-05T13:15:05;102207.13;;;19.72;49.17
53647;BME280;39550;52.230;5.194;2022-07-05T13:17:30;102206.25;;;19.75;50.13
53647;BME280;39550;52.230;5.194;2022-07-05T13:19:56;102225.34;;;19.88;50.85
53647;BME280;39550;52.230;5.194;2022-07-05T13:22:22;102232.16;;;20.04;50.45
53647;BME280;39550;52.230;5.194;2022-07-05T13:24:47;102212.25;;;19.88;48.95
53647;BME280;39550;52.230;5.194;2022-07-05T13:27:13;102240.16;;;19.89;48.78
53647;BME280;39550;52.230;5.194;2022-07-05T13:29:39;102229.75;;;19.83;47.94
53647;BME280;39550;52.230;5.194;2022-07-05T13:32:05;102232.28;;;19.90;47.38
53647;BME280;39550;52.230;5.194;2022-07-05T13:34:31;102217.56;;;19.79;48.65
53647;BME280;39550;52.230;5.194;2022-07-05T13:36:57;102227.19;;;19.73;49.42